sensor_id;sensor_type;location;lat;lon;timestamp;pressure;altitude;pressure_sealevel;temperature;humidity
50484;BME280;36409;52.168;20.878;2023-04-23T00:01:58;100243.90;;;7.25;55.75
50484;BME280;36409;52.168;20.878;2023-04-23T00:04:33;100241.32;;;7.24;55.55
50484;BME280;36409;52.168;20.878;2023-04-23T00:07:13;100242.19;;;7.23;55.76
50484;BME280;36409;52.168;20.878;2023-04-23T00:09:50;100241.31;;;7.21;55.77
50484;BME280;36409;52.168;20.878;2023-04-23T00:12:25;100240.47;;;7.20;55.89
50484;BME280;36409;52.168;20.878;2023-04-23T00:15:02;100237.85;;;7.19;56.13
50484;BME280;36409;52.168;20.878;2023-04-23T00:17:37;100239.60;;;7.18;56.19
50484;BME280;36409;52.168;20.878;2023-04-23T00:20:10;100232.67;;;7.17;56.01
50484;BME280;36409;52.168;20.878;2023-04-23T00:22:43;100231.81;;;7.15;56.09
50484;BME280;36409;52.168;20.878;2023-04-23T00:25:16;100232.67;;;7.14;56.18
50484;BME280;36409;52.168;20.878;2023-04-23T00:27:48;100231.81;;;7.12;56.31
50484;BME280;36409;52.168;20.878;2023-04-23T00:30:21;100230.08;;;7.11;56.17
50484;BME280;36409;52.168;20.878;2023-04-23T00:32:56;100230.09;;;7.09;56.61
50484;BME280;36409;52.168;20.878;2023-04-23T00:35:29;100228.38;;;7.07;56.50
50484;BME280;36409;52.168;20.878;2023-04-23T00:38:02;100226.64;;;7.06;56.53
50484;BME280;36409;52.168;20.878;2023-04-23T00:40:35;100225.78;;;7.04;56.45
50484;BME280;36409;52.168;20.878;2023-04-23T00:43:08;100224.91;;;7.02;56.40
50484;BME280;36409;52.168;20.878;2023-04-23T00:45:42;100226.64;;;7.00;56.85
50484;BME280;36409;52.168;20.878;2023-04-23T00:48:15;100224.05;;;6.98;56.81
50484;BME280;36409;52.168;20.878;2023-04-23T00:50:48;100219.75;;;6.95;56.79
50484;BME280;36409;52.168;20.878;2023-04-23T00:53:21;100229.27;;;6.92;56.40
50484;BME280;36409;52.168;20.878;2023-04-23T00:55:53;100227.52;;;6.89;56.41
50484;BME280;36409;52.168;20.878;2023-04-23T00:58:26;100230.99;;;6.87;56.92
50484;BME280;36409;52.168;20.878;2023-04-23T01:01:01;100234.45;;;6.83;57.30
50484;BME280;36409;52.168;20.878;2023-04-23T01:03:35;100234.45;;;6.78;56.96
50484;BME280;36409;52.168;20.878;2023-04-23T01:06:11;100231.86;;;6.73;56.96
50484;BME280;36409;52.168;20.878;2023-04-23T01:08:45;100231.88;;;6.72;57.20
50484;BME280;36409;52.168;20.878;2023-04-23T01:11:19;100234.46;;;6.69;57.28
50484;BME280;36409;52.168;20.878;2023-04-23T01:13:52;100234.47;;;6.67;56.86
50484;BME280;36409;52.168;20.878;2023-04-23T01:16:26;100230.13;;;6.64;57.32
50484;BME280;36409;52.168;20.878;2023-04-23T01:18:59;100227.56;;;6.61;57.38
50484;BME280;36409;52.168;20.878;2023-04-23T01:21:32;100236.19;;;6.57;57.05
50484;BME280;36409;52.168;20.878;2023-04-23T01:24:08;100235.34;;;6.52;57.02
50484;BME280;36409;52.168;20.878;2023-04-23T01:26:41;100239.64;;;6.48;57.27
50484;BME280;36409;52.168;20.878;2023-04-23T01:29:15;100231.88;;;6.45;57.10
50484;BME280;36409;52.168;20.878;2023-04-23T01:31:48;100224.94;;;6.43;57.99
50484;BME280;36409;52.168;20.878;2023-04-23T01:34:22;100236.17;;;6.42;57.51
50484;BME280;36409;52.168;20.878;2023-04-23T01:36:55;100230.98;;;6.42;57.70
50484;BME280;36409;52.168;20.878;2023-04-23T01:39:29;100231.86;;;6.39;58.03
50484;BME280;36409;52.168;20.878;2023-04-23T01:42:05;100231.01;;;6.39;57.98
50484;BME280;36409;52.168;20.878;2023-04-23T01:44:38;100230.14;;;6.37;57.90
50484;BME280;36409;52.168;20.878;2023-04-23T01:47:11;100231.01;;;6.34;57.63
50484;BME280;36409;52.168;20.878;2023-04-23T01:49:44;100230.14;;;6.32;58.03
50484;BME280;36409;52.168;20.878;2023-04-23T01:52:17;100231.86;;;6.30;58.04
50484;BME280;36409;52.168;20.878;2023-04-23T01:54:50;100231.87;;;6.28;58.32
50484;BME280;36409;52.168;20.878;2023-04-23T01:57:23;100232.72;;;6.27;58.44
50484;BME280;36409;52.168;20.878;2023-04-23T02:00:02;100231.85;;;6.25;57.87
50484;BME280;36409;52.168;20.878;2023-04-23T02:02:44;100233.57;;;6.23;58.08
50484;BME280;36409;52.168;20.878;2023-04-23T02:05:19;100236.17;;;6.22;58.31
50484;BME280;36409;52.168;20.878;2023-04-23T02:07:52;100236.16;;;6.18;57.95
50484;BME280;36409;52.168;20.878;2023-04-23T02:10:25;100230.98;;;6.17;58.61
50484;BME280;36409;52.168;20.878;2023-04-23T02:12:57;100230.96;;;6.15;58.56
50484;BME280;36409;52.168;20.878;2023-04-23T02:15:30;100234.41;;;6.14;58.35
50484;BME280;36409;52.168;20.878;2023-04-23T02:18:07;100230.09;;;6.12;59.00
50484;BME280;36409;52.168;20.878;2023-04-23T02:20:42;100235.29;;;6.10;58.70
50484;BME280;36409;52.168;20.878;2023-04-23T02:23:15;100230.97;;;6.08;58.36
50484;BME280;36409;52.168;20.878;2023-04-23T02:25:47;100231.80;;;6.05;58.50
50484;BME280;36409;52.168;20.878;2023-04-23T02:28:21;100228.34;;;6.03;59.18
50484;BME280;36409;52.168;20.878;2023-04-23T02:30:53;100230.94;;;6.01;59.10
50484;BME280;36409;52.168;20.878;2023-04-23T02:33:26;100230.95;;;6.00;59.18
50484;BME280;36409;52.168;20.878;2023-04-23T02:35:59;100231.77;;;5.99;58.76
50484;BME280;36409;52.168;20.878;2023-04-23T02:38:31;100225.72;;;5.97;58.87
50484;BME280;36409;52.168;20.878;2023-04-23T02:41:05;100226.58;;;5.96;58.81
50484;BME280;36409;52.168;20.878;2023-04-23T02:43:39;100234.36;;;5.94;59.27
50484;BME280;36409;52.168;20.878;2023-04-23T02:46:12;100229.15;;;5.93;58.82
50484;BME280;36409;52.168;20.878;2023-04-23T02:48:44;100226.56;;;5.91;59.01
50484;BME280;36409;52.168;20.878;2023-04-23T02:51:17;100215.33;;;5.89;59.43
50484;BME280;36409;52.168;20.878;2023-04-23T02:53:50;100228.28;;;5.89;59.05
50484;BME280;36409;52.168;20.878;2023-04-23T02:56:23;100219.63;;;5.87;59.38
50484;BME280;36409;52.168;20.878;2023-04-23T02:58:56;100223.09;;;5.86;59.16
50484;BME280;36409;52.168;20.878;2023-04-23T03:01:29;100226.54;;;5.83;59.89
50484;BME280;36409;52.168;20.878;2023-04-23T03:04:02;100222.22;;;5.81;59.18
50484;BME280;36409;52.168;20.878;2023-04-23T03:06:36;100227.41;;;5.79;59.62
50484;BME280;36409;52.168;20.878;2023-04-23T03:09:08;100224.80;;;5.78;59.92
50484;BME280;36409;52.168;20.878;2023-04-23T03:11:42;100227.39;;;5.76;59.88
50484;BME280;36409;52.168;20.878;2023-04-23T03:14:16;100217.89;;;5.74;59.46
50484;BME280;36409;52.168;20.878;2023-04-23T03:16:49;100221.34;;;5.72;59.78
50484;BME280;36409;52.168;20.878;2023-04-23T03:19:22;100219.61;;;5.71;60.15
50484;BME280;36409;52.168;20.878;2023-04-23T03:21:57;100210.11;;;5.70;60.03
50484;BME280;36409;52.168;20.878;2023-04-23T03:24:31;100216.99;;;5.70;59.81
50484;BME280;36409;52.168;20.878;2023-04-23T03:27:04;100216.14;;;5.69;59.65
50484;BME280;36409;52.168;20.878;2023-04-23T03:29:41;100213.55;;;5.69;60.14
50484;BME280;36409;52.168;20.878;2023-04-23T03:32:14;100219.58;;;5.70;60.26
50484;BME280;36409;52.168;20.878;2023-04-23T03:34:46;100217.02;;;5.71;60.34
50484;BME280;36409;52.168;20.878;2023-04-23T03:37:20;100211.84;;;5.71;60.41
50484;BME280;36409;52.168;20.878;2023-04-23T03:39:52;100213.57;;;5.72;59.94
50484;BME280;36409;52.168;20.878;2023-04-23T03:42:26;100206.64;;;5.75;60.19
50484;BME280;36409;52.168;20.878;2023-04-23T03:44:59;100210.13;;;5.75;60.27
50484;BME280;36409;52.168;20.878;2023-04-23T03:47:33;100210.11;;;5.77;60.26
50484;BME280;36409;52.168;20.878;2023-04-23T03:50:11;100217.05;;;5.79;60.65
50484;BME280;36409;52.168;20.878;2023-04-23T03:52:45;100210.13;;;5.81;60.61
50484;BME280;36409;52.168;20.878;2023-04-23T03:55:24;100208.43;;;5.85;60.19
50484;BME280;36409;52.168;20.878;2023-04-23T03:57:57;100211.01;;;5.88;61.10
50484;BME280;36409;52.168;20.878;2023-04-23T04:00:43;100210.16;;;5.92;60.52
50484;BME280;36409;52.168;20.878;2023-04-23T04:03:17;100212.77;;;5.95;60.76
50484;BME280;36409;52.168;20.878;2023-04-23T04:05:50;100218.84;;;6.00;60.56
50484;BME280;36409;52.168;20.878;2023-04-23T04:08:23;100217.99;;;6.06;60.94
50484;BME280;36409;52.168;20.878;2023-04-23T04:10:56;100221.46;;;6.13;60.45
50484;BME280;36409;52.168;20.878;2023-04-23T04:13:30;100224.08;;;6.19;60.72
50484;BME280;36409;52.168;20.878;2023-04-23T04:16:03;100222.36;;;6.27;60.91
50484;BME280;36409;52.168;20.878;2023-04-23T04:18:36;100226.67;;;6.34;60.69
50484;BME280;36409;52.168;20.878;2023-04-23T04:21:10;100221.50;;;6.67;60.68
50484;BME280;36409;52.168;20.878;2023-04-23T04:23:42;100217.59;;;8.00;60.70
50484;BME280;36409;52.168;20.878;2023-04-23T04:26:17;100210.37;;;8.44;60.97
50484;BME280;36409;52.168;20.878;2023-04-23T04:28:50;100206.98;;;9.29;60.09
50484;BME280;36409;52.168;20.878;2023-04-23T04:31:23;100211.08;;;10.71;59.87
50484;BME280;36409;52.168;20.878;2023-04-23T04:33:58;100212.20;;;10.56;60.01
50484;BME280;36409;52.168;20.878;2023-04-23T04:36:34;100211.55;;;11.40;59.05
50484;BME280;36409;52.168;20.878;2023-04-23T04:39:08;100203.27;;;12.04;58.14
50484;BME280;36409;52.168;20.878;2023-04-23T04:41:45;100204.48;;;12.96;57.88
50484;BME280;36409;52.168;20.878;2023-04-23T04:44:20;100203.78;;;14.67;57.39
50484;BME280;36409;52.168;20.878;2023-04-23T04:46:56;100198.30;;;16.18;55.87
50484;BME280;36409;52.168;20.878;2023-04-23T04:49:29;100200.84;;;16.64;55.01
50484;BME280;36409;52.168;20.878;2023-04-23T04:52:08;100199.98;;;17.25;55.25
50484;BME280;36409;52.168;20.878;2023-04-23T04:54:40;100193.28;;;18.50;53.72
50484;BME280;36409;52.168;20.878;2023-04-23T04:57:14;100203.14;;;19.83;52.20
50484;BME280;36409;52.168;20.878;2023-04-23T04:59:47;100192.63;;;21.05;51.27
50484;BME280;36409;52.168;20.878;2023-04-23T05:02:20;100190.30;;;22.00;49.90
50484;BME280;36409;52.168;20.878;2023-04-23T05:04:53;100189.45;;;22.93;48.77
50484;BME280;36409;52.168;20.878;2023-04-23T05:07:28;100186.30;;;23.77;48.08
50484;BME280;36409;52.168;20.878;2023-04-23T05:10:01;100188.56;;;24.07;47.48
50484;BME280;36409;52.168;20.878;2023-04-23T05:12:36;100187.84;;;23.92;46.18
50484;BME280;36409;52.168;20.878;2023-04-23T05:15:12;100196.05;;;22.74;45.50
50484;BME280;36409;52.168;20.878;2023-04-23T05:17:43;100189.88;;;22.99;44.45
50484;BME280;36409;52.168;20.878;2023-04-23T05:20:16;100193.73;;;23.84;44.04
50484;BME280;36409;52.168;20.878;2023-04-23T05:22:56;100189.67;;;24.76;43.31
50484;BME280;36409;52.168;20.878;2023-04-23T05:25:30;100188.17;;;25.64;41.88
50484;BME280;36409;52.168;20.878;2023-04-23T05:28:07;100187.02;;;26.33;41.55
50484;BME280;36409;52.168;20.878;2023-04-23T05:30:41;100183.05;;;26.70;40.60
50484;BME280;36409;52.168;20.878;2023-04-23T05:33:16;100185.11;;;26.78;40.27
50484;BME280;36409;52.168;20.878;2023-04-23T05:35:51;100179.86;;;26.55;39.59
50484;BME280;36409;52.168;20.878;2023-04-23T05:38:25;100189.36;;;26.48;39.06
50484;BME280;36409;52.168;20.878;2023-04-23T05:40:57;100179.34;;;26.40;38.91
50484;BME280;36409;52.168;20.878;2023-04-23T05:43:31;100179.65;;;25.25;38.65
50484;BME280;36409;52.168;20.878;2023-04-23T05:46:03;100183.17;;;23.96;38.79
50484;BME280;36409;52.168;20.878;2023-04-23T05:48:40;100182.50;;;22.51;38.89
50484;BME280;36409;52.168;20.878;2023-04-23T05:51:13;100187.50;;;21.45;39.83
50484;BME280;36409;52.168;20.878;2023-04-23T05:53:45;100189.88;;;20.92;39.76
50484;BME280;36409;52.168;20.878;2023-04-23T05:56:18;100185.90;;;20.99;39.68
50484;BME280;36409;52.168;20.878;2023-04-23T05:58:52;100184.65;;;20.76;40.11
50484;BME280;36409;52.168;20.878;2023-04-23T06:01:24;100191.81;;;20.43;40.65
50484;BME280;36409;52.168;20.878;2023-04-23T06:03:57;100184.60;;;20.15;40.38
50484;BME280;36409;52.168;20.878;2023-04-23T06:06:33;100189.03;;;20.30;40.01
50484;BME280;36409;52.168;20.878;2023-04-23T06:09:06;100190.67;;;19.85;39.90
50484;BME280;36409;52.168;20.878;2023-04-23T06:11:39;100185.58;;;18.98;40.20
50484;BME280;36409;52.168;20.878;2023-04-23T06:14:12;100187.72;;;18.37;40.74
50484;BME280;36409;52.168;20.878;2023-04-23T06:16:50;100185.97;;;17.82;41.11
50484;BME280;36409;52.168;20.878;2023-04-23T06:19:23;100189.48;;;17.24;41.34
50484;BME280;36409;52.168;20.878;2023-04-23T06:21:57;100187.46;;;16.89;42.00
50484;BME280;36409;52.168;20.878;2023-04-23T06:24:30;100195.42;;;16.67;41.82
50484;BME280;36409;52.168;20.878;2023-04-23T06:27:03;100194.68;;;16.43;42.18
50484;BME280;36409;52.168;20.878;2023-04-23T06:29:39;100193.34;;;16.32;42.18
50484;BME280;36409;52.168;20.878;2023-04-23T06:32:13;100194.98;;;16.35;42.83
50484;BME280;36409;52.168;20.878;2023-04-23T06:34:49;100193.53;;;16.71;42.31
50484;BME280;36409;52.168;20.878;2023-04-23T06:37:34;100187.76;;;17.04;42.14
50484;BME280;36409;52.168;20.878;2023-04-23T06:40:11;100188.19;;;18.28;41.64
50484;BME280;36409;52.168;20.878;2023-04-23T06:42:45;100182.58;;;20.04;40.53
50484;BME280;36409;52.168;20.878;2023-04-23T06:45:18;100173.02;;;21.36;39.99
50484;BME280;36409;52.168;20.878;2023-04-23T06:47:51;100175.72;;;22.60;39.17
50484;BME280;36409;52.168;20.878;2023-04-23T06:50:23;100172.48;;;23.58;38.20
50484;BME280;36409;52.168;20.878;2023-04-23T06:52:57;100170.38;;;23.88;37.78
50484;BME280;36409;52.168;20.878;2023-04-23T06:55:30;100177.22;;;23.79;37.74
50484;BME280;36409;52.168;20.878;2023-04-23T06:58:08;100178.91;;;23.43;38.25
50484;BME280;36409;52.168;20.878;2023-04-23T07:00:45;100171.48;;;23.09;38.24
50484;BME280;36409;52.168;20.878;2023-04-23T07:03:18;100170.83;;;22.80;37.97
50484;BME280;36409;52.168;20.878;2023-04-23T07:05:51;100171.78;;;21.98;38.07
50484;BME280;36409;52.168;20.878;2023-04-23T07:08:24;100172.93;;;22.49;38.29
50484;BME280;36409;52.168;20.878;2023-04-23T07:10:57;100169.83;;;23.58;36.97
50484;BME280;36409;52.168;20.878;2023-04-23T07:13:30;100159.61;;;24.85;36.31
50484;BME280;36409;52.168;20.878;2023-04-23T07:16:04;100156.22;;;25.17;35.55
50484;BME280;36409;52.168;20.878;2023-04-23T07:18:36;100147.62;;;25.48;35.37
50484;BME280;36409;52.168;20.878;2023-04-23T07:21:10;100157.67;;;24.87;35.21
50484;BME280;36409;52.168;20.878;2023-04-23T07:23:43;100154.33;;;24.61;35.90
50484;BME280;36409;52.168;20.878;2023-04-23T07:26:16;100150.25;;;24.79;35.05
50484;BME280;36409;52.168;20.878;2023-04-23T07:28:49;100152.74;;;24.23;35.31
50484;BME280;36409;52.168;20.878;2023-04-23T07:31:23;100153.52;;;24.36;35.46
50484;BME280;36409;52.168;20.878;2023-04-23T07:33:56;100150.77;;;24.96;34.48
50484;BME280;36409;52.168;20.878;2023-04-23T07:36:29;100141.59;;;24.17;34.64
50484;BME280;36409;52.168;20.878;2023-04-23T07:39:04;100149.64;;;23.04;35.89
50484;BME280;36409;52.168;20.878;2023-04-23T07:41:40;100143.06;;;22.18;35.88
50484;BME280;36409;52.168;20.878;2023-04-23T07:44:14;100143.78;;;21.51;36.58
50484;BME280;36409;52.168;20.878;2023-04-23T07:46:47;100141.48;;;21.73;36.58
50484;BME280;36409;52.168;20.878;2023-04-23T07:49:22;100146.67;;;22.17;35.39
50484;BME280;36409;52.168;20.878;2023-04-23T07:51:55;100147.09;;;22.77;35.00
50484;BME280;36409;52.168;20.878;2023-04-23T07:54:28;100143.07;;;23.23;34.51
50484;BME280;36409;52.168;20.878;2023-04-23T07:57:00;100141.87;;;23.40;35.28
50484;BME280;36409;52.168;20.878;2023-04-23T07:59:34;100138.16;;;22.78;35.44
50484;BME280;36409;52.168;20.878;2023-04-23T08:02:09;100145.94;;;23.20;35.03
50484;BME280;36409;52.168;20.878;2023-04-23T08:04:42;100140.45;;;23.47;34.44
50484;BME280;36409;52.168;20.878;2023-04-23T08:07:15;100138.41;;;23.51;34.74
50484;BME280;36409;52.168;20.878;2023-04-23T08:09:47;100141.55;;;23.69;34.32
50484;BME280;36409;52.168;20.878;2023-04-23T08:12:21;100134.24;;;23.59;34.72
50484;BME280;36409;52.168;20.878;2023-04-23T08:14:57;100134.64;;;23.16;34.18
50484;BME280;36409;52.168;20.878;2023-04-23T08:17:33;100133.05;;;22.75;34.65
50484;BME280;36409;52.168;20.878;2023-04-23T08:20:08;100132.81;;;22.52;34.64
50484;BME280;36409;52.168;20.878;2023-04-23T08:22:42;100134.40;;;22.42;34.93
50484;BME280;36409;52.168;20.878;2023-04-23T08:25:16;100131.14;;;22.24;34.94
50484;BME280;36409;52.168;20.878;2023-04-23T08:27:49;100128.13;;;22.02;34.92
50484;BME280;36409;52.168;20.878;2023-04-23T08:30:22;100134.58;;;21.98;35.14
50484;BME280;36409;52.168;20.878;2023-04-23T08:32:55;100130.44;;;21.94;34.84
50484;BME280;36409;52.168;20.878;2023-04-23T08:35:29;100122.81;;;22.02;34.53
50484;BME280;36409;52.168;20.878;2023-04-23T08:38:02;100122.19;;;22.12;34.83
50484;BME280;36409;52.168;20.878;2023-04-23T08:40:38;100129.67;;;22.32;34.82
50484;BME280;36409;52.168;20.878;2023-04-23T08:43:18;100124.95;;;22.50;34.44
50484;BME280;36409;52.168;20.878;2023-04-23T08:45:51;100119.22;;;22.82;34.36
50484;BME280;36409;52.168;20.878;2023-04-23T08:48:24;100114.63;;;23.10;34.36
50484;BME280;36409;52.168;20.878;2023-04-23T08:50:59;100116.62;;;23.33;33.66
50484;BME280;36409;52.168;20.878;2023-04-23T08:53:39;100110.05;;;23.63;33.69
50484;BME280;36409;52.168;20.878;2023-04-23T08:56:15;100108.22;;;23.87;33.24
50484;BME280;36409;52.168;20.878;2023-04-23T08:58:48;100100.83;;;24.04;32.89
50484;BME280;36409;52.168;20.878;2023-04-23T09:01:21;100091.30;;;24.13;33.40
50484;BME280;36409;52.168;20.878;2023-04-23T09:03:57;100099.94;;;24.28;33.30
50484;BME280;36409;52.168;20.878;2023-04-23T09:06:31;100097.91;;;24.43;32.70
50484;BME280;36409;52.168;20.878;2023-04-23T09:09:05;100095.41;;;24.64;32.90
50484;BME280;36409;52.168;20.878;2023-04-23T09:11:39;100090.17;;;24.62;32.64
50484;BME280;36409;52.168;20.878;2023-04-23T09:14:13;100087.91;;;24.69;32.63
50484;BME280;36409;52.168;20.878;2023-04-23T09:16:46;100080.87;;;24.79;32.02
50484;BME280;36409;52.168;20.878;2023-04-23T09:19:19;100083.69;;;24.89;31.91
50484;BME280;36409;52.168;20.878;2023-04-23T09:21:56;100084.05;;;25.07;32.83
50484;BME280;36409;52.168;20.878;2023-04-23T09:24:29;100082.70;;;25.13;32.13
50484;BME280;36409;52.168;20.878;2023-04-23T09:27:01;100084.77;;;25.21;31.95
50484;BME280;36409;52.168;20.878;2023-04-23T09:29:34;100084.02;;;25.41;31.88
50484;BME280;36409;52.168;20.878;2023-04-23T09:32:08;100079.87;;;25.49;32.04
50484;BME280;36409;52.168;20.878;2023-04-23T09:34:42;100082.72;;;25.68;31.53
50484;BME280;36409;52.168;20.878;2023-04-23T09:37:18;100078.48;;;25.66;31.28
50484;BME280;36409;52.168;20.878;2023-04-23T09:39:51;100084.34;;;25.59;31.18
50484;BME280;36409;52.168;20.878;2023-04-23T09:42:28;100068.31;;;25.59;30.81
50484;BME280;36409;52.168;20.878;2023-04-23T09:45:04;100073.14;;;25.66;30.88
50484;BME280;36409;52.168;20.878;2023-04-23T09:47:41;100062.31;;;25.67;30.66
50484;BME280;36409;52.168;20.878;2023-04-23T09:50:19;100065.17;;;25.87;30.73
50484;BME280;36409;52.168;20.878;2023-04-23T09:53:03;100061.64;;;25.86;30.38
50484;BME280;36409;52.168;20.878;2023-04-23T09:55:39;100057.69;;;26.02;30.80
50484;BME280;36409;52.168;20.878;2023-04-23T09:58:25;100051.28;;;25.93;30.26
50484;BME280;36409;52.168;20.878;2023-04-23T10:01:06;100052.34;;;26.02;30.51
50484;BME280;36409;52.168;20.878;2023-04-23T10:03:43;100059.24;;;26.04;30.19
50484;BME280;36409;52.168;20.878;2023-04-23T10:06:16;100051.47;;;26.01;30.48
50484;BME280;36409;52.168;20.878;2023-04-23T10:09:09;100044.82;;;25.96;30.42
50484;BME280;36409;52.168;20.878;2023-04-23T10:11:42;100043.02;;;25.96;30.06
50484;BME280;36409;52.168;20.878;2023-04-23T10:14:15;100039.03;;;25.90;29.66
50484;BME280;36409;52.168;20.878;2023-04-23T10:16:50;100038.64;;;25.95;29.89
50484;BME280;36409;52.168;20.878;2023-04-23T10:19:24;100028.83;;;26.17;30.37
50484;BME280;36409;52.168;20.878;2023-04-23T10:21:59;100026.58;;;26.43;29.85
50484;BME280;36409;52.168;20.878;2023-04-23T10:24:53;100022.17;;;26.32;29.48
50484;BME280;36409;52.168;20.878;2023-04-23T10:27:30;100020.23;;;26.13;29.24
50484;BME280;36409;52.168;20.878;2023-04-23T10:30:22;100017.34;;;26.05;29.78
50484;BME280;36409;52.168;20.878;2023-04-23T10:32:55;100014.63;;;26.16;29.54
50484;BME280;36409;52.168;20.878;2023-04-23T10:35:29;100007.58;;;26.15;29.40
50484;BME280;36409;52.168;20.878;2023-04-23T10:38:04;100013.25;;;26.22;29.84
50484;BME280;36409;52.168;20.878;2023-04-23T10:40:42;100016.28;;;26.39;29.42
50484;BME280;36409;52.168;20.878;2023-04-23T10:43:19;100016.77;;;26.54;29.16
50484;BME280;36409;52.168;20.878;2023-04-23T10:45:51;100006.64;;;26.57;28.74
50484;BME280;36409;52.168;20.878;2023-04-23T10:48:24;100002.87;;;26.60;28.86
50484;BME280;36409;52.168;20.878;2023-04-23T10:51:02;100007.56;;;26.77;28.91
50484;BME280;36409;52.168;20.878;2023-04-23T10:53:55;100000.59;;;26.86;28.96
50484;BME280;36409;52.168;20.878;2023-04-23T10:56:29;99993.39;;;26.87;28.78
50484;BME280;36409;52.168;20.878;2023-04-23T10:59:06;99993.36;;;26.77;28.79
50484;BME280;36409;52.168;20.878;2023-04-23T11:01:40;99998.91;;;26.54;28.60
50484;BME280;36409;52.168;20.878;2023-04-23T11:04:25;99988.20;;;26.54;28.36
50484;BME280;36409;52.168;20.878;2023-04-23T11:07:08;99980.58;;;26.49;28.42
50484;BME280;36409;52.168;20.878;2023-04-23T11:09:44;99986.36;;;26.55;28.66
50484;BME280;36409;52.168;20.878;2023-04-23T11:15:31;99984.97;;;26.60;28.54
50484;BME280;36409;52.168;20.878;2023-04-23T11:18:05;99972.28;;;26.84;28.44
50484;BME280;36409;52.168;20.878;2023-04-23T11:20:37;99975.94;;;26.82;28.09
50484;BME280;36409;52.168;20.878;2023-04-23T11:23:29;99979.97;;;26.77;28.07
50484;BME280;36409;52.168;20.878;2023-04-23T11:26:05;99982.20;;;26.72;27.58
50484;BME280;36409;52.168;20.878;2023-04-23T11:28:40;99966.40;;;26.68;27.98
50484;BME280;36409;52.168;20.878;2023-04-23T11:31:15;99970.44;;;26.84;27.85
50484;BME280;36409;52.168;20.878;2023-04-23T11:33:46;99957.20;;;26.92;27.79
50484;BME280;36409;52.168;20.878;2023-04-23T11:36:18;99960.67;;;26.73;27.24
50484;BME280;36409;52.168;20.878;2023-04-23T11:38:56;99950.19;;;26.60;27.47
50484;BME280;36409;52.168;20.878;2023-04-23T11:41:34;99950.64;;;26.65;27.97
50484;BME280;36409;52.168;20.878;2023-04-23T11:44:08;99956.33;;;26.82;27.59
50484;BME280;36409;52.168;20.878;2023-04-23T11:46:49;99956.22;;;26.84;27.55
50484;BME280;36409;52.168;20.878;2023-04-23T11:49:23;99952.85;;;26.50;27.18
50484;BME280;36409;52.168;20.878;2023-04-23T11:51:59;99952.48;;;26.34;27.30
50484;BME280;36409;52.168;20.878;2023-04-23T11:54:42;99961.66;;;26.41;27.26
50484;BME280;36409;52.168;20.878;2023-04-23T11:57:15;99948.84;;;26.35;27.25
50484;BME280;36409;52.168;20.878;2023-04-23T11:59:48;99947.09;;;26.24;27.07
50484;BME280;36409;52.168;20.878;2023-04-23T12:02:24;99950.77;;;26.23;27.27
50484;BME280;36409;52.168;20.878;2023-04-23T12:05:07;99947.37;;;26.21;27.09
50484;BME280;36409;52.168;20.878;2023-04-23T12:07:42;99958.64;;;26.25;27.66
50484;BME280;36409;52.168;20.878;2023-04-23T12:10:19;99958.09;;;26.31;26.94
50484;BME280;36409;52.168;20.878;2023-04-23T12:12:53;99952.66;;;26.11;26.88
50484;BME280;36409;52.168;20.878;2023-04-23T12:15:25;99949.59;;;26.16;26.73
50484;BME280;36409;52.168;20.878;2023-04-23T12:18:10;99950.61;;;26.03;26.59
50484;BME280;36409;52.168;20.878;2023-04-23T12:20:42;99937.99;;;25.63;26.72
50484;BME280;36409;52.168;20.878;2023-04-23T12:23:16;99944.23;;;25.52;26.92
50484;BME280;36409;52.168;20.878;2023-04-23T12:25:51;99943.59;;;25.60;27.15
50484;BME280;36409;52.168;20.878;2023-04-23T12:28:26;99934.45;;;25.41;26.60
50484;BME280;36409;52.168;20.878;2023-04-23T12:31:05;99921.62;;;25.24;26.84
50484;BME280;36409;52.168;20.878;2023-04-23T12:33:38;99922.23;;;25.27;26.87
50484;BME280;36409;52.168;20.878;2023-04-23T12:36:15;99920.64;;;25.25;27.32
50484;BME280;36409;52.168;20.878;2023-04-23T12:38:47;99917.73;;;25.28;27.02
50484;BME280;36409;52.168;20.878;2023-04-23T12:41:24;99920.64;;;25.25;27.23
50484;BME280;36409;52.168;20.878;2023-04-23T12:43:56;99916.17;;;25.25;27.05
50484;BME280;36409;52.168;20.878;2023-04-23T12:46:43;99913.75;;;25.22;27.20
50484;BME280;36409;52.168;20.878;2023-04-23T12:49:15;99915.25;;;25.36;27.47
50484;BME280;36409;52.168;20.878;2023-04-23T12:51:48;99915.53;;;25.33;27.30
50484;BME280;36409;52.168;20.878;2023-04-23T12:54:23;99910.69;;;25.27;26.83
50484;BME280;36409;52.168;20.878;2023-04-23T12:56:57;99904.42;;;25.17;26.94
50484;BME280;36409;52.168;20.878;2023-04-23T12:59:37;99905.02;;;25.20;27.14
50484;BME280;36409;52.168;20.878;2023-04-23T13:02:10;99899.56;;;25.22;27.63
50484;BME280;36409;52.168;20.878;2023-04-23T13:04:44;99900.78;;;25.18;26.95
50484;BME280;36409;52.168;20.878;2023-04-23T13:07:17;99896.50;;;25.26;27.85
50484;BME280;36409;52.168;20.878;2023-04-23T13:09:50;99891.66;;;25.20;27.39
50484;BME280;36409;52.168;20.878;2023-04-23T13:12:26;99886.66;;;24.94;27.58
50484;BME280;36409;52.168;20.878;2023-04-23T13:14:58;99884.67;;;24.75;27.20
50484;BME280;36409;52.168;20.878;2023-04-23T13:17:35;99880.16;;;24.64;27.19
50484;BME280;36409;52.168;20.878;2023-04-23T13:20:09;99878.61;;;24.73;27.56
50484;BME280;36409;52.168;20.878;2023-04-23T13:22:42;99864.41;;;24.73;27.53
50484;BME280;36409;52.168;20.878;2023-04-23T13:25:15;99864.89;;;24.66;27.58
50484;BME280;36409;52.168;20.878;2023-04-23T13:27:48;99859.06;;;24.61;27.87